createdAt,value
2018-05-19T00:00:10.226Z,75.80
2018-05-19T00:02:39.746Z,75.80
2018-05-19T00:05:08.710Z,75.50
2018-05-19T00:07:37.906Z,75.30
2018-05-19T00:10:07.246Z,75.40
2018-05-19T00:12:36.286Z,75.60
2018-05-19T00:15:05.206Z,75.60
2018-05-19T00:17:34.966Z,75.60
2018-05-19T00:20:04.314Z,75.80
2018-05-19T00:22:39.246Z,76.00
2018-05-19T00:25:08.611Z,76.00
2018-05-19T00:27:37.926Z,75.80
2018-05-19T00:30:06.666Z,75.70
2018-05-19T00:32:36.066Z,75.90
2018-05-19T00:35:05.326Z,75.60
2018-05-19T00:37:34.346Z,75.60
2018-05-19T00:40:03.586Z,75.30
2018-05-19T00:42:32.926Z,74.90
2018-05-19T00:45:01.726Z,74.60
2018-05-19T00:47:31.106Z,74.60
2018-05-19T00:50:00.066Z,75.00
2018-05-19T00:52:29.446Z,75.00
2018-05-19T00:55:05.266Z,75.10
2018-05-19T00:57:33.706Z,75.20
2018-05-19T01:00:02.447Z,75.00
2018-05-19T01:02:32.127Z,75.20
2018-05-19T01:05:00.525Z,75.20
2018-05-19T01:07:29.406Z,75.20
2018-05-19T01:09:58.409Z,75.40
2018-05-19T01:12:27.765Z,75.40
2018-05-19T01:14:57.426Z,75.30
2018-05-19T01:17:26.607Z,75.20
2018-05-19T01:19:55.406Z,75.20
2018-05-19T01:22:24.930Z,75.00
2018-05-19T01:24:54.606Z,75.00
2018-05-19T01:27:23.886Z,75.10
2018-05-19T01:29:52.926Z,75.00
2018-05-19T01:32:21.666Z,75.30
2018-05-19T01:34:52.026Z,75.20
2018-05-19T01:37:22.146Z,75.40
2018-05-19T01:39:51.565Z,75.40
2018-05-19T01:42:20.026Z,75.40
2018-05-19T01:44:49.166Z,75.70
2018-05-19T01:47:18.708Z,75.60
2018-05-19T01:49:47.946Z,75.40
2018-05-19T01:52:17.306Z,75.50
2018-05-19T01:54:45.906Z,75.40
2018-05-19T01:57:14.747Z,75.40
2018-05-19T01:59:43.627Z,75.30
2018-05-19T02:02:12.687Z,75.40
2018-05-19T02:04:41.646Z,75.20
2018-05-19T02:07:11.147Z,74.90
2018-05-19T02:09:40.387Z,75.30
2018-05-19T02:12:09.786Z,75.40
2018-05-19T02:14:38.987Z,75.60
2018-05-19T02:17:07.986Z,75.80
2018-05-19T02:19:37.906Z,75.50
2018-05-19T02:22:06.627Z,75.50
2018-05-19T02:24:35.206Z,75.60
2018-05-19T02:27:03.947Z,75.70
2018-05-19T02:29:33.867Z,75.80
2018-05-19T02:32:02.607Z,75.70
2018-05-19T02:34:31.607Z,76.00
2018-05-19T02:37:00.487Z,76.00
2018-05-19T02:39:29.173Z,76.60
2018-05-19T02:41:57.666Z,76.00
2018-05-19T02:44:27.207Z,76.20
2018-05-19T02:46:56.306Z,76.30
2018-05-19T02:49:25.047Z,76.40
2018-05-19T02:51:53.546Z,76.60
2018-05-19T02:54:22.466Z,76.70
2018-05-19T02:56:51.527Z,76.90
2018-05-19T02:59:21.286Z,77.30
2018-05-19T03:01:50.514Z,76.90
2018-05-19T03:04:19.765Z,77.10
2018-05-19T03:06:48.487Z,77.10
2018-05-19T03:09:17.027Z,77.00
2018-05-19T03:11:46.509Z,77.00
2018-05-19T03:14:16.188Z,77.60
2018-05-19T03:16:45.626Z,76.90
2018-05-19T03:19:14.786Z,77.10
2018-05-19T03:21:44.286Z,77.10
2018-05-19T03:24:13.346Z,76.80
2018-05-19T03:26:42.766Z,77.00
2018-05-19T03:29:11.745Z,77.00
2018-05-19T03:31:40.349Z,76.80
2018-05-19T03:34:09.746Z,76.90
2018-05-19T03:36:38.926Z,77.00
2018-05-19T03:39:08.228Z,77.00
2018-05-19T03:41:36.986Z,77.00
2018-05-19T03:44:06.926Z,77.50
2018-05-19T03:46:35.986Z,77.30
2018-05-19T03:49:04.467Z,77.50
2018-05-19T03:51:33.725Z,77.10
2018-05-19T03:54:02.454Z,77.60
2018-05-19T03:56:31.185Z,77.00
2018-05-19T03:59:11.546Z,77.10
2018-05-19T04:01:52.465Z,77.00
2018-05-19T04:04:21.426Z,77.10
2018-05-19T04:06:50.466Z,77.30
2018-05-19T04:09:20.465Z,77.70
2018-05-19T04:11:49.486Z,77.70
2018-05-19T04:14:18.146Z,77.90
2018-05-19T04:16:47.566Z,77.80
2018-05-19T04:19:16.946Z,77.60
2018-05-19T04:21:46.246Z,77.50
2018-05-19T04:24:14.947Z,77.40
2018-05-19T04:26:43.707Z,77.60
2018-05-19T04:29:12.947Z,77.50
2018-05-19T04:31:42.305Z,77.40
2018-05-19T04:34:11.446Z,77.30
2018-05-19T04:36:40.805Z,77.20
2018-05-19T04:39:09.926Z,77.20
2018-05-19T04:41:39.340Z,77.20
2018-05-19T04:44:08.445Z,77.20
2018-05-19T04:46:38.026Z,77.50
2018-05-19T04:49:06.788Z,77.40
2018-05-19T04:51:35.265Z,77.30
2018-05-19T04:54:03.727Z,77.60
2018-05-19T04:56:32.227Z,77.60
2018-05-19T04:59:01.706Z,77.90
2018-05-19T05:01:30.726Z,78.10
2018-05-19T05:03:59.637Z,78.40
2018-05-19T05:06:28.666Z,78.50
2018-05-19T05:08:58.125Z,78.60
2018-05-19T05:11:27.246Z,78.80
2018-05-19T05:13:56.714Z,78.90
2018-05-19T05:16:26.146Z,79.00
2018-05-19T05:18:55.906Z,78.90
2018-05-19T05:21:25.387Z,79.10
2018-05-19T05:23:54.386Z,78.90
2018-05-19T05:26:23.206Z,79.10
2018-05-19T05:28:52.606Z,79.10
2018-05-19T05:31:21.867Z,79.20
2018-05-19T05:33:50.871Z,78.60
2018-05-19T05:36:20.109Z,78.70
2018-05-19T05:38:49.606Z,78.30
2018-05-19T05:41:19.135Z,78.30
2018-05-19T05:43:48.706Z,78.50
2018-05-19T05:46:17.448Z,78.20
2018-05-19T05:48:46.086Z,78.40
2018-05-19T05:51:15.106Z,78.40
2018-05-19T05:53:43.926Z,78.40
2018-05-19T05:56:12.586Z,78.20
2018-05-19T05:58:41.766Z,77.50
2018-05-19T06:01:11.828Z,77.50
2018-05-19T06:03:40.826Z,77.60
2018-05-19T06:06:09.842Z,77.50
2018-05-19T06:08:39.326Z,78.00
2018-05-19T06:11:08.307Z,77.60
2018-05-19T06:13:37.587Z,77.20
2018-05-19T06:16:06.808Z,76.90
2018-05-19T06:18:36.584Z,76.30
2018-05-19T06:21:05.147Z,76.00
2018-05-19T06:23:33.168Z,76.00
2018-05-19T06:26:02.275Z,75.60
2018-05-19T06:28:31.594Z,75.30
2018-05-19T06:31:01.435Z,75.70
2018-05-19T06:33:30.794Z,75.50
2018-05-19T06:35:59.874Z,75.00
2018-05-19T06:38:28.756Z,75.00
2018-05-19T06:40:58.134Z,74.80
2018-05-19T06:43:27.014Z,75.20
2018-05-19T06:45:55.754Z,75.10
2018-05-19T06:48:24.861Z,74.80
2018-05-19T06:50:53.314Z,75.10
2018-05-19T06:53:23.754Z,74.30
2018-05-19T06:55:53.516Z,74.20
2018-05-19T06:58:22.794Z,74.20
2018-05-19T07:00:51.814Z,74.10
2018-05-19T07:03:21.534Z,73.30
2018-05-19T07:05:51.274Z,73.80
2018-05-19T07:08:20.354Z,73.30
2018-05-19T07:10:48.994Z,73.60
2018-05-19T07:13:17.994Z,73.30
2018-05-19T07:15:46.434Z,73.30
2018-05-19T07:18:15.996Z,73.10
2018-05-19T07:20:45.074Z,73.00
2018-05-19T07:23:13.714Z,72.90
2018-05-19T07:25:42.475Z,72.00
2018-05-19T07:28:11.535Z,71.90
2018-05-19T07:30:41.215Z,72.10
2018-05-19T07:33:10.974Z,71.90
2018-05-19T07:35:40.036Z,71.90
2018-05-19T07:38:09.195Z,71.50
2018-05-19T07:40:38.715Z,70.90
2018-05-19T07:43:07.715Z,71.00
2018-05-19T07:45:36.577Z,70.50
2018-05-19T07:48:05.694Z,69.80
2018-05-19T07:50:34.194Z,69.30
2018-05-19T07:53:03.955Z,69.20
2018-05-19T07:55:32.677Z,68.50
2018-05-19T07:58:01.207Z,67.70
2018-05-19T08:00:29.914Z,67.30
2018-05-19T08:02:59.035Z,67.50
2018-05-19T08:05:27.915Z,67.60
2018-05-19T08:08:01.255Z,66.80
2018-05-19T08:10:30.474Z,65.60
2018-05-19T08:12:59.235Z,65.50
2018-05-19T08:15:28.215Z,66.20
2018-05-19T08:17:56.775Z,66.30
2018-05-19T08:20:25.719Z,65.70
2018-05-19T08:22:54.690Z,65.20
2018-05-19T08:25:23.530Z,65.20
2018-05-19T08:27:52.932Z,64.70
2018-05-19T08:30:21.711Z,64.80
2018-05-19T08:32:50.392Z,65.50
2018-05-19T08:35:18.872Z,64.90
2018-05-19T08:37:47.616Z,65.20
2018-05-19T08:40:16.097Z,64.80
2018-05-19T08:42:44.550Z,65.60
2018-05-19T08:45:13.070Z,66.00
2018-05-19T08:47:42.810Z,66.90
2018-05-19T08:50:11.050Z,66.50
2018-05-19T08:52:39.870Z,66.00
2018-05-19T08:55:08.789Z,66.30
2018-05-19T08:57:37.896Z,66.00
2018-05-19T09:00:06.750Z,65.60
2018-05-19T09:02:35.769Z,65.70
2018-05-19T09:05:05.566Z,66.10
2018-05-19T09:07:34.248Z,66.00
2018-05-19T09:10:03.344Z,64.50
2018-05-19T09:12:32.239Z,64.70
2018-05-19T09:15:00.360Z,64.50
2018-05-19T09:17:29.182Z,64.50
2018-05-19T09:19:58.301Z,64.70
2018-05-19T09:22:27.460Z,64.10
2018-05-19T09:24:57.200Z,64.40
2018-05-19T09:27:26.447Z,64.00
2018-05-19T09:29:55.529Z,64.00
2018-05-19T09:32:23.959Z,63.40
2018-05-19T09:34:53.700Z,63.90
2018-05-19T09:37:22.479Z,63.80
2018-05-19T09:39:51.178Z,63.30
2018-05-19T09:42:20.778Z,64.60
2018-05-19T09:44:50.439Z,63.90
2018-05-19T09:47:20.746Z,63.90
2018-05-19T09:49:50.479Z,63.70
2018-05-19T09:52:21.503Z,64.00
2018-05-19T09:54:49.542Z,62.70
2018-05-19T09:57:18.720Z,62.80
2018-05-19T09:59:47.479Z,63.70
2018-05-19T10:02:16.461Z,64.00
2018-05-19T10:04:45.206Z,63.60
2018-05-19T10:07:15.479Z,63.20
2018-05-19T10:09:44.559Z,63.10
2018-05-19T10:12:14.719Z,62.50
2018-05-19T10:14:43.200Z,62.50
2018-05-19T10:17:11.959Z,62.30
2018-05-19T10:19:41.138Z,61.50
2018-05-19T10:22:09.620Z,61.70
2018-05-19T10:24:38.599Z,61.10
2018-05-19T10:27:07.560Z,60.80
2018-05-19T10:29:36.682Z,60.90
2018-05-19T10:32:05.399Z,61.80
2018-05-19T10:34:33.880Z,60.80
2018-05-19T10:37:02.619Z,59.90
2018-05-19T10:39:31.298Z,59.40
2018-05-19T10:42:00.458Z,58.90
2018-05-19T10:44:29.340Z,59.60
2018-05-19T10:46:58.144Z,59.50
2018-05-19T10:49:27.583Z,59.10
2018-05-19T10:51:56.721Z,59.10
2018-05-19T10:54:25.582Z,59.70
2018-05-19T10:56:54.841Z,59.00
2018-05-19T10:59:24.589Z,59.00
2018-05-19T11:01:54.809Z,59.20
2018-05-19T11:04:23.337Z,59.10
2018-05-19T11:06:53.368Z,59.00
2018-05-19T11:09:23.109Z,58.80
2018-05-19T11:11:51.907Z,58.80
2018-05-19T11:14:20.849Z,58.30
2018-05-19T11:16:50.129Z,57.90
2018-05-19T11:19:18.828Z,57.20
2018-05-19T11:21:47.887Z,57.50
2018-05-19T11:24:16.929Z,57.50
2018-05-19T11:26:46.531Z,57.30
2018-05-19T11:29:15.329Z,57.00
2018-05-19T11:31:44.567Z,57.30
2018-05-19T11:34:13.648Z,57.20
2018-05-19T11:36:42.148Z,56.80
2018-05-19T11:39:10.612Z,57.90
2018-05-19T11:41:39.040Z,56.80
2018-05-19T11:44:07.849Z,57.20
2018-05-19T11:46:36.728Z,57.70
2018-05-19T11:49:05.215Z,57.80
2018-05-19T11:51:34.692Z,58.30
2018-05-19T11:54:04.492Z,58.70
2018-05-19T11:56:34.242Z,58.20
2018-05-19T11:59:03.400Z,58.30
2018-05-19T12:01:31.834Z,58.10
2018-05-19T12:04:00.542Z,57.90
2018-05-19T12:06:29.183Z,58.00
2018-05-19T12:08:57.941Z,57.70
2018-05-19T12:11:27.700Z,57.40
2018-05-19T12:13:57.103Z,57.30
2018-05-19T12:16:26.203Z,57.20
2018-05-19T12:18:56.459Z,57.40
2018-05-19T12:21:25.020Z,57.20
2018-05-19T12:23:54.498Z,57.70
2018-05-19T12:26:23.958Z,57.40
2018-05-19T12:28:52.979Z,57.30
2018-05-19T12:31:22.399Z,57.60
2018-05-19T12:33:52.209Z,57.20
2018-05-19T12:36:21.059Z,56.70
2018-05-19T12:38:50.978Z,56.60
2018-05-19T12:41:20.841Z,56.70
2018-05-19T12:43:51.021Z,56.70
2018-05-19T12:46:21.021Z,56.90
2018-05-19T12:48:50.024Z,56.90
2018-05-19T12:51:19.040Z,56.50
2018-05-19T12:53:48.767Z,57.20
2018-05-19T12:56:18.499Z,56.70
2018-05-19T12:58:48.159Z,56.80
2018-05-19T13:01:18.058Z,57.10
2018-05-19T13:03:47.047Z,56.90
2018-05-19T13:06:15.779Z,56.60
2018-05-19T13:08:45.059Z,56.90
2018-05-19T13:11:13.659Z,56.70
2018-05-19T13:13:43.040Z,57.00
2018-05-19T13:16:12.820Z,57.10
2018-05-19T13:18:42.019Z,57.00
2018-05-19T13:21:11.301Z,57.00
2018-05-19T13:23:41.539Z,56.90
2018-05-19T13:26:10.019Z,57.00
2018-05-19T13:28:39.538Z,57.10
2018-05-19T13:31:08.781Z,57.40
2018-05-19T13:33:38.364Z,58.30
2018-05-19T13:36:07.780Z,57.80
2018-05-19T13:38:36.388Z,57.70
2018-05-19T13:41:05.300Z,57.50
2018-05-19T13:43:35.058Z,57.70
2018-05-19T13:46:04.020Z,57.80
2018-05-19T13:48:33.298Z,57.40
2018-05-19T13:51:02.560Z,55.50
2018-05-19T13:53:32.779Z,56.00
2018-05-19T13:56:01.782Z,54.60
2018-05-19T13:58:31.258Z,54.00
2018-05-19T14:00:59.781Z,54.30
2018-05-19T14:03:28.458Z,54.10
2018-05-19T14:05:57.759Z,54.60
2018-05-19T14:08:27.298Z,55.80
2018-05-19T14:10:56.521Z,54.20
2018-05-19T14:13:25.377Z,53.90
2018-05-19T14:15:54.960Z,52.00
2018-05-19T14:18:23.585Z,53.20
2018-05-19T14:20:52.746Z,53.10
2018-05-19T14:23:22.499Z,52.10
2018-05-19T14:25:51.598Z,51.90
2018-05-19T14:28:20.999Z,51.50
2018-05-19T14:30:50.378Z,52.10
2018-05-19T14:33:19.360Z,52.00
2018-05-19T14:35:49.758Z,51.80
2018-05-19T14:38:18.820Z,52.50
2018-05-19T14:40:47.101Z,52.60
2018-05-19T14:43:16.339Z,53.10
2018-05-19T14:45:45.499Z,50.90
2018-05-19T14:48:14.318Z,51.40
2018-05-19T14:50:43.499Z,50.60
2018-05-19T14:53:13.477Z,50.50
2018-05-19T14:55:42.858Z,50.40
2018-05-19T14:58:12.100Z,51.30
2018-05-19T15:00:41.298Z,52.10
2018-05-19T15:03:09.978Z,51.70
2018-05-19T15:05:39.060Z,50.50
2018-05-19T15:08:07.598Z,50.50
2018-05-19T15:10:36.459Z,49.30
2018-05-19T15:13:05.440Z,49.50
2018-05-19T15:15:34.259Z,48.60
2018-05-19T15:18:03.698Z,48.90
2018-05-19T15:20:32.920Z,48.90
2018-05-19T15:23:01.619Z,48.10
2018-05-19T15:25:30.999Z,48.80
2018-05-19T15:27:59.899Z,49.90
2018-05-19T15:30:28.419Z,50.20
2018-05-19T15:32:57.404Z,50.40
2018-05-19T15:35:26.140Z,50.90
2018-05-19T15:37:55.619Z,50.90
2018-05-19T15:40:24.218Z,51.00
2018-05-19T15:42:53.439Z,51.10
2018-05-19T15:45:22.181Z,51.50
2018-05-19T15:47:50.418Z,51.70
2018-05-19T15:50:19.838Z,52.50
2018-05-19T15:52:49.379Z,53.50
2018-05-19T15:55:19.366Z,53.60
2018-05-19T15:57:49.378Z,55.80
2018-05-19T16:00:18.099Z,55.80
2018-05-19T16:02:47.100Z,55.80
2018-05-19T16:05:17.378Z,55.50
2018-05-19T16:07:46.199Z,55.50
2018-05-19T16:10:15.860Z,56.20
2018-05-19T16:12:44.599Z,57.10
2018-05-19T16:15:14.379Z,58.10
2018-05-19T16:17:44.241Z,59.00
2018-05-19T16:20:13.379Z,58.50
2018-05-19T16:22:42.620Z,59.30
2018-05-19T16:25:12.119Z,59.30
2018-05-19T16:27:41.381Z,59.60
2018-05-19T16:30:09.859Z,59.90
2018-05-19T16:32:38.931Z,60.10
2018-05-19T16:35:08.121Z,60.00
2018-05-19T16:37:37.859Z,60.80
2018-05-19T16:40:06.661Z,60.70
2018-05-19T16:42:35.441Z,60.50
2018-05-19T16:45:04.904Z,61.30
2018-05-19T16:47:34.358Z,61.90
2018-05-19T16:50:03.440Z,61.70
2018-05-19T16:52:33.199Z,60.30
2018-05-19T16:55:01.861Z,60.30
2018-05-19T16:57:31.140Z,59.20
2018-05-19T17:00:00.779Z,59.60
2018-05-19T17:02:30.360Z,58.00
2018-05-19T17:04:58.861Z,57.80
2018-05-19T17:07:27.798Z,58.20
2018-05-19T17:09:56.841Z,58.00
2018-05-19T17:12:25.839Z,57.20
2018-05-19T17:14:54.640Z,56.60
2018-05-19T17:17:24.318Z,55.50
2018-05-19T17:19:54.080Z,55.40
2018-05-19T17:22:23.618Z,55.90
2018-05-19T17:24:53.079Z,55.60
2018-05-19T17:27:21.584Z,55.60
2018-05-19T17:29:50.578Z,54.90
2018-05-19T17:32:20.378Z,53.60
2018-05-19T17:34:49.298Z,53.60
2018-05-19T17:37:18.578Z,53.80
2018-05-19T17:39:48.059Z,53.30
2018-05-19T17:42:17.080Z,53.20
2018-05-19T17:44:45.941Z,53.70
2018-05-19T17:47:15.059Z,53.30
2018-05-19T17:49:45.319Z,53.20
2018-05-19T17:52:14.080Z,53.60
2018-05-19T17:54:45.120Z,53.20
2018-05-19T17:57:14.705Z,53.20
2018-05-19T17:59:44.120Z,53.80
2018-05-19T18:02:14.238Z,52.90
2018-05-19T18:04:43.379Z,52.80
2018-05-19T18:07:12.762Z,52.10
2018-05-19T18:09:42.379Z,52.70
2018-05-19T18:12:11.599Z,52.50
2018-05-19T18:14:41.178Z,52.80
2018-05-19T18:17:09.920Z,52.70
2018-05-19T18:19:39.400Z,53.50
2018-05-19T18:22:08.439Z,54.10
2018-05-19T18:24:37.699Z,54.20
2018-05-19T18:27:06.338Z,54.50
2018-05-19T18:29:34.964Z,54.80
2018-05-19T18:32:04.358Z,55.00
2018-05-19T18:34:33.558Z,55.10
2018-05-19T18:37:03.119Z,55.40
2018-05-19T18:39:32.642Z,55.40
2018-05-19T18:42:01.599Z,55.10
2018-05-19T18:44:30.898Z,55.40
2018-05-19T18:47:00.120Z,55.10
2018-05-19T18:49:29.780Z,55.20
2018-05-19T18:51:58.579Z,55.30
2018-05-19T18:54:27.118Z,55.10
2018-05-19T18:56:56.200Z,54.80
2018-05-19T18:59:25.340Z,54.70
2018-05-19T19:01:54.840Z,55.00
2018-05-19T19:04:23.581Z,55.00
2018-05-19T19:06:52.619Z,55.30
2018-05-19T19:09:21.293Z,54.60
2018-05-19T19:11:51.323Z,54.70
2018-05-19T19:14:21.079Z,55.50
2018-05-19T19:16:49.820Z,55.30
2018-05-19T19:19:19.058Z,55.60
2018-05-19T19:21:47.282Z,55.50
2018-05-19T19:24:16.899Z,55.90
2018-05-19T19:26:46.299Z,55.10
2018-05-19T19:29:15.059Z,55.10
2018-05-19T19:31:44.540Z,54.80
2018-05-19T19:34:14.058Z,54.90
2018-05-19T19:36:43.798Z,55.00
2018-05-19T19:39:13.582Z,54.90
2018-05-19T19:41:43.619Z,54.40
2018-05-19T19:44:13.059Z,54.40
2018-05-19T19:46:41.839Z,54.70
2018-05-19T19:49:11.343Z,54.80
2018-05-19T19:51:40.339Z,54.80
2018-05-19T19:54:09.618Z,55.00
2018-05-19T19:56:39.338Z,55.60
2018-05-19T19:59:08.579Z,55.50
2018-05-19T20:01:38.099Z,55.50
2018-05-19T20:04:07.298Z,55.60
2018-05-19T20:06:36.199Z,56.00
2018-05-19T20:09:05.861Z,55.90
2018-05-19T20:11:35.740Z,55.90
2018-05-19T20:14:04.716Z,55.70
2018-05-19T20:16:33.619Z,55.70
2018-05-19T20:19:02.159Z,55.90
2018-05-19T20:21:30.599Z,55.70
2018-05-19T20:23:59.545Z,55.60
2018-05-19T20:26:28.580Z,55.70
2018-05-19T20:28:58.299Z,55.60
2018-05-19T20:31:27.559Z,55.10
2018-05-19T20:33:56.641Z,55.60
2018-05-19T20:36:25.543Z,54.80
2018-05-19T20:38:54.619Z,54.40
2018-05-19T20:41:23.539Z,54.40
2018-05-19T20:43:52.864Z,54.60
2018-05-19T20:46:22.339Z,54.50
2018-05-19T20:48:51.119Z,54.70
2018-05-19T20:51:20.785Z,54.90
2018-05-19T20:53:50.338Z,54.70
2018-05-19T20:56:19.760Z,54.70
2018-05-19T20:58:48.578Z,54.90
2018-05-19T21:01:18.040Z,54.90
2018-05-19T21:03:47.781Z,55.10
2018-05-19T21:06:17.799Z,55.20
2018-05-19T21:08:47.559Z,54.80
2018-05-19T21:11:17.079Z,54.60
2018-05-19T21:13:45.859Z,54.90
2018-05-19T21:16:15.579Z,55.20
2018-05-19T21:18:45.661Z,55.30
2018-05-19T21:21:15.340Z,55.40
2018-05-19T21:23:43.940Z,55.30
2018-05-19T21:26:13.078Z,55.30
2018-05-19T21:28:41.119Z,55.40
2018-05-19T21:31:09.378Z,55.80
2018-05-19T21:33:38.019Z,55.80
2018-05-19T21:36:07.359Z,55.80
2018-05-19T21:38:36.519Z,56.10
2018-05-19T21:41:05.440Z,56.70
2018-05-19T21:43:34.978Z,57.30
2018-05-19T21:46:04.679Z,57.30
2018-05-19T21:48:33.858Z,57.30
2018-05-19T21:51:03.538Z,57.50
2018-05-19T21:53:32.761Z,57.60
2018-05-19T21:56:02.282Z,57.60
2018-05-19T21:58:32.042Z,57.80
2018-05-19T22:01:01.665Z,58.10
2018-05-19T22:03:30.783Z,58.00
2018-05-19T22:06:01.370Z,58.40
2018-05-19T22:08:30.830Z,58.70
2018-05-19T22:10:59.863Z,58.70
2018-05-19T22:13:28.642Z,59.70
2018-05-19T22:15:57.840Z,59.20
2018-05-19T22:18:27.059Z,59.50
2018-05-19T22:20:55.540Z,59.40
2018-05-19T22:23:24.594Z,59.50
2018-05-19T22:25:54.038Z,59.70
2018-05-19T22:28:23.300Z,59.90
2018-05-19T22:30:52.019Z,59.70
2018-05-19T22:33:20.518Z,60.10
2018-05-19T22:35:49.998Z,60.10
2018-05-19T22:38:19.259Z,60.20
2018-05-19T22:40:48.498Z,60.70
2018-05-19T22:43:17.238Z,60.50
2018-05-19T22:45:46.258Z,60.80
2018-05-19T22:48:15.498Z,61.10
2018-05-19T22:50:44.358Z,61.50
2018-05-19T22:53:13.838Z,61.70
2018-05-19T22:55:43.478Z,61.90
2018-05-19T22:58:12.478Z,62.10
2018-05-19T23:00:43.178Z,62.40
2018-05-19T23:03:12.859Z,62.50
2018-05-19T23:05:41.338Z,62.20
2018-05-19T23:08:09.800Z,62.50
2018-05-19T23:10:38.601Z,62.50
2018-05-19T23:13:07.503Z,62.50
2018-05-19T23:15:36.707Z,62.50
2018-05-19T23:18:05.702Z,62.70
2018-05-19T23:20:34.178Z,62.90
2018-05-19T23:23:03.938Z,63.20
2018-05-19T23:25:32.779Z,63.30
2018-05-19T23:28:02.184Z,63.20
2018-05-19T23:30:31.298Z,63.30
2018-05-19T23:33:00.981Z,63.40
2018-05-19T23:35:30.198Z,63.70
2018-05-19T23:37:59.319Z,63.80
2018-05-19T23:40:28.961Z,63.90
2018-05-19T23:42:59.478Z,63.90
2018-05-19T23:45:28.258Z,63.80
2018-05-19T23:47:57.738Z,64.50
2018-05-19T23:50:26.959Z,64.10
2018-05-19T23:52:55.959Z,64.20
2018-05-19T23:55:24.998Z,64.20
2018-05-19T23:57:53.698Z,64.30
